createdAt,value
2022-11-18T00:09:15.135Z,54.46
2022-11-18T00:19:17.032Z,54.42
2022-11-18T00:29:18.903Z,54.35
2022-11-18T00:39:20.974Z,54.60
2022-11-18T00:49:22.894Z,54.38
2022-11-18T00:59:24.253Z,54.47
2022-11-18T01:09:25.798Z,54.62
2022-11-18T01:19:27.287Z,54.60
2022-11-18T01:29:28.678Z,54.78
2022-11-18T01:39:31.304Z,55.04
2022-11-18T01:49:32.679Z,55.10
2022-11-18T01:59:36.050Z,55.26
2022-11-18T02:09:37.540Z,55.45
2022-11-18T02:19:47.820Z,55.41
2022-11-18T02:30:08.477Z,55.39
2022-11-18T02:40:19.175Z,55.57
2022-11-18T02:50:22.756Z,55.55
2022-11-18T03:00:24.218Z,55.48
2022-11-18T03:10:25.726Z,55.72
2022-11-18T03:20:51.087Z,56.00
2022-11-18T03:31:03.599Z,55.93
2022-11-18T03:41:06.416Z,56.03
2022-11-18T03:51:12.175Z,56.10
2022-11-18T04:01:17.078Z,56.22
2022-11-18T04:11:38.620Z,56.20
2022-11-18T04:21:40.070Z,56.15
2022-11-18T04:31:41.531Z,56.09
2022-11-18T04:41:57.188Z,56.12
2022-11-18T04:51:58.711Z,56.20
2022-11-18T05:02:00.907Z,56.34
2022-11-18T05:12:20.877Z,56.20
2022-11-18T05:22:22.281Z,56.08
2022-11-18T05:32:23.693Z,55.83
2022-11-18T05:42:43.627Z,55.61
2022-11-18T05:52:45.002Z,55.23
2022-11-18T06:02:46.814Z,54.90
2022-11-18T06:12:50.785Z,54.63
2022-11-18T06:22:54.255Z,54.23
2022-11-18T06:32:55.654Z,53.95
2022-11-18T06:43:16.055Z,53.64
2022-11-18T06:53:17.470Z,53.43
2022-11-18T07:03:18.872Z,53.75
2022-11-18T07:13:20.341Z,53.68
2022-11-18T07:23:21.759Z,53.33
2022-11-18T07:33:23.152Z,53.04
2022-11-18T07:43:24.534Z,53.26
2022-11-18T07:53:25.931Z,53.20
2022-11-18T08:03:27.888Z,53.26
2022-11-18T08:13:29.528Z,53.33
2022-11-18T08:23:33.986Z,53.21
2022-11-18T08:33:37.909Z,53.54
2022-11-18T08:43:39.357Z,53.18
2022-11-18T08:53:40.837Z,53.07
2022-11-18T09:03:42.359Z,53.01
2022-11-18T09:14:20.476Z,52.67
2022-11-18T09:24:05.781Z,52.45
2022-11-18T09:34:10.090Z,52.12
2022-11-18T09:44:14.444Z,50.16
2022-11-18T09:54:23.162Z,49.89
2022-11-18T10:04:24.688Z,49.87
2022-11-18T10:15:10.694Z,49.92
2022-11-18T10:25:16.353Z,49.42
2022-11-18T10:35:28.255Z,49.62
2022-11-18T10:45:30.519Z,50.09
2022-11-18T10:55:32.070Z,49.96
2022-11-18T11:05:33.439Z,49.70
2022-11-18T11:15:47.900Z,49.14
2022-11-18T11:36:31.591Z,48.87
2022-11-18T11:47:08.241Z,48.90
2022-11-18T11:57:15.824Z,48.69
2022-11-18T12:07:27.703Z,48.86
2022-11-18T12:17:34.064Z,49.08
2022-11-18T12:27:39.953Z,48.85
2022-11-18T12:37:53.427Z,48.57
2022-11-18T12:47:54.659Z,48.53
2022-11-18T12:57:56.038Z,49.16
2022-11-18T13:08:13.178Z,48.61
2022-11-18T13:18:17.181Z,48.52
2022-11-18T13:28:25.535Z,49.18
2022-11-18T13:38:28.652Z,48.88
2022-11-18T13:48:30.284Z,48.83
2022-11-18T14:09:27.317Z,49.14
2022-11-18T14:19:30.825Z,49.40
2022-11-18T14:29:32.209Z,49.19
2022-11-18T14:39:34.294Z,49.17
2022-11-18T14:49:35.835Z,49.39
2022-11-18T14:59:37.236Z,49.69
2022-11-18T15:09:38.613Z,50.20
2022-11-18T15:19:41.421Z,49.98
2022-11-18T15:29:42.816Z,50.30
2022-11-18T15:39:44.314Z,50.45
2022-11-18T15:49:45.814Z,50.39
2022-11-18T15:59:47.611Z,50.59
2022-11-18T16:10:07.732Z,51.37
2022-11-18T16:20:09.510Z,51.64
2022-11-18T16:30:33.640Z,51.88
2022-11-18T16:40:35.094Z,52.07
2022-11-18T16:50:36.558Z,52.56
2022-11-18T17:01:09.235Z,52.65
2022-11-18T17:11:07.032Z,52.84
2022-11-18T17:21:11.005Z,53.15
2022-11-18T17:31:22.157Z,53.50
2022-11-18T17:41:43.807Z,53.65
2022-11-18T17:51:48.075Z,53.97
2022-11-18T18:01:53.014Z,54.30
2022-11-18T18:11:59.947Z,54.13
2022-11-18T18:22:01.355Z,54.17
2022-11-18T18:32:02.920Z,54.18
2022-11-18T18:42:05.414Z,54.01
2022-11-18T18:52:06.873Z,53.71
2022-11-18T19:02:13.548Z,53.88
2022-11-18T19:12:33.587Z,54.42
2022-11-18T19:22:35.614Z,54.88
2022-11-18T19:32:40.211Z,55.69
2022-11-18T19:42:42.499Z,55.55
2022-11-18T19:52:49.967Z,55.50
2022-11-18T20:02:51.337Z,55.18
2022-11-18T20:12:52.818Z,55.14
2022-11-18T20:22:54.322Z,55.22
2022-11-18T20:32:55.777Z,55.26
2022-11-18T20:43:12.432Z,55.49
2022-11-18T20:53:14.996Z,55.62
2022-11-18T21:03:16.469Z,55.32
2022-11-18T21:13:36.420Z,55.42
2022-11-18T21:23:37.909Z,55.92
2022-11-18T21:33:39.372Z,55.64
2022-11-18T21:44:04.561Z,55.85
2022-11-18T21:54:03.265Z,55.82
2022-11-18T22:04:05.171Z,55.93
2022-11-18T22:14:07.837Z,55.64
2022-11-18T22:24:09.526Z,55.67
2022-11-18T22:34:11.014Z,55.81
2022-11-18T22:44:13.856Z,55.91
2022-11-18T23:04:36.881Z,55.94
2022-11-18T23:14:38.262Z,56.08
2022-11-18T23:24:39.902Z,56.48
2022-11-18T23:34:41.278Z,56.40
2022-11-18T23:44:45.515Z,56.38
2022-11-18T23:54:49.808Z,56.50
